createdAt,value
2018-06-22T00:01:07.259Z,102531.06
2018-06-22T00:03:40.202Z,102531.21
2018-06-22T00:06:13.148Z,102535.45
2018-06-22T00:08:47.446Z,102527.58
2018-06-22T00:11:18.192Z,102532.05
2018-06-22T00:13:49.299Z,102526.23
2018-06-22T00:16:20.783Z,102523.91
2018-06-22T00:18:50.904Z,102530.78
2018-06-22T00:21:24.834Z,102525.47
2018-06-22T00:23:59.442Z,102516.89
2018-06-22T00:26:30.807Z,102522.50
2018-06-22T00:29:03.204Z,102515.13
2018-06-22T00:31:36.403Z,102515.77
2018-06-22T00:34:09.346Z,102510.77
2018-06-22T00:36:43.835Z,102514.64
2018-06-22T00:39:19.126Z,102516.52
2018-06-22T00:41:54.711Z,102516.87
2018-06-22T00:44:28.783Z,102515.53
2018-06-22T00:47:04.254Z,102516.47
2018-06-22T00:49:36.628Z,102511.25
2018-06-22T00:52:09.133Z,102515.63
2018-06-22T00:54:43.674Z,102512.14
2018-06-22T00:57:13.735Z,102511.95
2018-06-22T00:59:44.680Z,102511.05
2018-06-22T01:02:14.864Z,102514.92
2018-06-22T01:04:47.287Z,102506.13
2018-06-22T01:07:20.852Z,102499.73
2018-06-22T01:09:55.466Z,102504.77
2018-06-22T01:12:28.419Z,102503.56
2018-06-22T01:15:00.081Z,102503.98
2018-06-22T01:17:33.594Z,102493.02
2018-06-22T01:20:06.588Z,102488.72
2018-06-22T01:22:39.781Z,102500.73
2018-06-22T01:25:12.861Z,102492.94
2018-06-22T01:27:43.892Z,102481.45
2018-06-22T01:30:15.425Z,102485.05
2018-06-22T01:32:49.194Z,102493.33
2018-06-22T01:35:23.263Z,102484.59
2018-06-22T01:37:56.488Z,102485.36
2018-06-22T01:40:30.134Z,102488.41
2018-06-22T01:43:04.802Z,102497.97
2018-06-22T01:45:36.346Z,102490.81
2018-06-22T01:48:09.392Z,102483.25
2018-06-22T01:50:42.643Z,102481.53
2018-06-22T01:53:14.267Z,102490.27
2018-06-22T01:55:48.644Z,102483.38
2018-06-22T01:58:20.804Z,102493.28
2018-06-22T02:00:52.137Z,102484.94
2018-06-22T02:03:25.184Z,102481.07
2018-06-22T02:05:58.381Z,102480.13
2018-06-22T02:08:30.613Z,102477.11
2018-06-22T02:11:02.281Z,102474.72
2018-06-22T02:13:36.020Z,102479.77
2018-06-22T02:16:09.233Z,102484.64
2018-06-22T02:18:43.686Z,102481.17
2018-06-22T02:21:14.432Z,102477.09
2018-06-22T02:23:46.029Z,102486.45
2018-06-22T02:26:18.519Z,102490.61
2018-06-22T02:28:51.733Z,102491.57
2018-06-22T02:31:22.496Z,102485.19
2018-06-22T02:33:55.409Z,102492.79
2018-06-22T02:36:26.403Z,102490.31
2018-06-22T02:39:00.994Z,102490.31
2018-06-22T02:41:35.560Z,102491.61
2018-06-22T02:44:08.609Z,102485.66
2018-06-22T02:46:40.243Z,102493.26
2018-06-22T02:49:10.748Z,102503.54
2018-06-22T02:51:44.838Z,102493.83
2018-06-22T02:54:17.996Z,102497.52
2018-06-22T02:56:51.796Z,102480.77
2018-06-22T02:59:25.843Z,102488.73
2018-06-22T03:01:58.516Z,102491.50
2018-06-22T03:04:30.199Z,102495.02
2018-06-22T03:06:59.892Z,102494.19
2018-06-22T03:09:31.179Z,102491.57
2018-06-22T03:12:04.395Z,102491.53
2018-06-22T03:14:35.662Z,102492.10
2018-06-22T03:17:04.622Z,102485.47
2018-06-22T03:19:37.802Z,102475.99
2018-06-22T03:22:10.439Z,102475.33
2018-06-22T03:24:43.437Z,102473.92
2018-06-22T03:27:16.908Z,102474.16
2018-06-22T03:29:50.089Z,102474.44
2018-06-22T03:32:21.856Z,102473.50
2018-06-22T03:34:56.409Z,102468.23
2018-06-22T03:37:29.414Z,102458.34
2018-06-22T03:40:03.846Z,102466.31
2018-06-22T03:42:36.752Z,102464.59
2018-06-22T03:45:09.711Z,102473.58
2018-06-22T03:47:42.994Z,102461.79
2018-06-22T03:50:16.064Z,102464.79
2018-06-22T03:52:49.657Z,102469.52
2018-06-22T03:55:23.631Z,102470.41
2018-06-22T03:57:58.061Z,102474.11
2018-06-22T04:00:28.963Z,102468.97
2018-06-22T04:03:00.538Z,102467.72
2018-06-22T04:05:33.759Z,102467.84
2018-06-22T04:08:08.355Z,102471.70
2018-06-22T04:10:42.900Z,102469.91
2018-06-22T04:13:16.077Z,102478.61
2018-06-22T04:15:46.143Z,102483.09
2018-06-22T04:18:17.529Z,102483.64
2018-06-22T04:20:50.632Z,102475.69
2018-06-22T04:23:23.686Z,102483.06
2018-06-22T04:25:55.979Z,102485.72
2018-06-22T04:28:27.422Z,102478.69
2018-06-22T04:30:59.213Z,102466.78
2018-06-22T04:33:32.114Z,102481.62
2018-06-22T04:36:03.742Z,102479.31
2018-06-22T04:38:37.921Z,102481.61
2018-06-22T04:41:12.266Z,102490.94
2018-06-22T04:43:45.430Z,102498.51
2018-06-22T04:46:19.884Z,102499.53
2018-06-22T04:48:51.799Z,102497.73
2018-06-22T04:51:26.367Z,102494.84
2018-06-22T04:53:59.601Z,102490.12
2018-06-22T04:56:33.116Z,102497.34
2018-06-22T04:59:05.251Z,102494.92
2018-06-22T05:01:38.413Z,102498.94
2018-06-22T05:04:09.196Z,102494.37
2018-06-22T05:06:42.388Z,102493.42
2018-06-22T05:09:16.951Z,102498.11
2018-06-22T05:11:49.967Z,102493.02
2018-06-22T05:14:21.001Z,102485.25
2018-06-22T05:16:54.037Z,102503.02
2018-06-22T05:19:28.488Z,102491.05
2018-06-22T05:22:00.612Z,102490.67
2018-06-22T05:24:35.213Z,102491.39
2018-06-22T05:27:08.203Z,102493.59
2018-06-22T05:29:41.288Z,102498.69
2018-06-22T05:32:12.954Z,102502.84
2018-06-22T05:34:46.113Z,102508.88
2018-06-22T05:37:20.585Z,102521.09
2018-06-22T05:39:55.256Z,102512.02
2018-06-22T05:42:27.011Z,102516.70
2018-06-22T05:45:01.392Z,102528.38
2018-06-22T05:47:35.965Z,102528.47
2018-06-22T05:50:07.818Z,102530.49
2018-06-22T05:52:41.049Z,102532.76
2018-06-22T05:55:15.079Z,102539.94
2018-06-22T05:57:46.591Z,102533.54
2018-06-22T06:00:20.537Z,102534.23
2018-06-22T06:02:53.439Z,102536.88
2018-06-22T06:05:26.300Z,102530.15
2018-06-22T06:07:58.688Z,102534.44
2018-06-22T06:10:33.249Z,102542.16
2018-06-22T06:13:08.117Z,102535.34
2018-06-22T06:15:42.164Z,102538.73
2018-06-22T06:18:16.337Z,102537.66
2018-06-22T06:20:49.496Z,102542.08
2018-06-22T06:23:22.698Z,102547.63
2018-06-22T06:25:55.623Z,102555.83
2018-06-22T06:28:27.965Z,102554.27
2018-06-22T06:30:59.953Z,102547.30
2018-06-22T06:33:33.668Z,102550.25
2018-06-22T06:36:07.893Z,102555.17
2018-06-22T06:38:42.468Z,102553.94
2018-06-22T06:41:15.853Z,102561.50
2018-06-22T06:43:49.405Z,102562.78
2018-06-22T06:46:23.290Z,102566.34
2018-06-22T06:48:56.749Z,102567.84
2018-06-22T06:51:31.165Z,102570.08
2018-06-22T06:54:04.400Z,102569.22
2018-06-22T06:56:37.494Z,102573.47
2018-06-22T06:59:09.154Z,102573.59
2018-06-22T07:01:41.424Z,102587.96
2018-06-22T07:04:12.149Z,102587.42
2018-06-22T07:06:46.821Z,102591.05
2018-06-22T07:09:20.069Z,102593.59
2018-06-22T07:11:51.713Z,102587.16
2018-06-22T07:14:24.884Z,102599.56
2018-06-22T07:16:59.467Z,102603.98
2018-06-22T07:19:32.488Z,102595.63
2018-06-22T07:22:06.762Z,102606.34
2018-06-22T07:24:41.411Z,102606.33
2018-06-22T07:27:14.202Z,102602.80
2018-06-22T07:29:47.133Z,102609.73
2018-06-22T07:32:21.885Z,102607.09
2018-06-22T07:34:53.320Z,102611.19
2018-06-22T07:37:24.766Z,102613.86
2018-06-22T07:39:58.500Z,102613.69
2018-06-22T07:42:33.004Z,102613.17
2018-06-22T07:45:04.728Z,102621.48
2018-06-22T07:47:36.275Z,102621.80
2018-06-22T07:50:09.291Z,102619.78
2018-06-22T07:52:41.363Z,102622.87
2018-06-22T07:55:13.938Z,102623.45
2018-06-22T07:57:46.950Z,102626.70
2018-06-22T08:00:20.123Z,102635.72
2018-06-22T08:02:54.496Z,102640.07
2018-06-22T08:05:27.344Z,102635.10
2018-06-22T08:08:00.362Z,102639.27
2018-06-22T08:10:30.474Z,102633.34
2018-06-22T08:13:04.948Z,102632.73
2018-06-22T08:15:38.809Z,102640.26
2018-06-22T08:18:10.165Z,102637.17
2018-06-22T08:20:43.155Z,102635.89
2018-06-22T08:23:13.237Z,102642.40
2018-06-22T08:25:43.933Z,102641.40
2018-06-22T08:28:18.437Z,102641.34
2018-06-22T08:30:53.078Z,102642.34
2018-06-22T08:33:26.244Z,102640.66
2018-06-22T08:36:00.739Z,102653.85
2018-06-22T08:38:32.255Z,102651.23
2018-06-22T08:41:05.546Z,102676.77
2018-06-22T08:43:38.536Z,102684.31
2018-06-22T08:46:11.822Z,102687.39
2018-06-22T08:48:44.871Z,102701.30
2018-06-22T08:51:18.367Z,102696.68
2018-06-22T08:53:49.303Z,102695.28
2018-06-22T08:56:20.801Z,102691.12
2018-06-22T08:58:52.265Z,102692.47
2018-06-22T09:01:22.383Z,102698.90
2018-06-22T09:03:53.728Z,102690.34
2018-06-22T09:06:26.699Z,102702.56
2018-06-22T09:08:57.555Z,102695.45
2018-06-22T09:11:30.516Z,102694.50
2018-06-22T09:14:03.551Z,102693.64
2018-06-22T09:16:36.538Z,102690.27
2018-06-22T09:19:09.537Z,102688.64
2018-06-22T09:21:42.821Z,102688.47
2018-06-22T09:24:17.206Z,102683.34
2018-06-22T09:26:50.873Z,102676.41
2018-06-22T09:29:22.452Z,102680.11
2018-06-22T09:31:53.715Z,102693.83
2018-06-22T09:34:25.191Z,102695.32
2018-06-22T09:36:58.071Z,102702.62
2018-06-22T09:39:29.475Z,102706.31
2018-06-22T09:42:03.222Z,102711.14
2018-06-22T09:44:42.532Z,102713.92
2018-06-22T09:47:15.467Z,102700.27
2018-06-22T09:49:47.501Z,102700.13
2018-06-22T09:52:19.935Z,102690.05
2018-06-22T09:54:54.539Z,102697.23
2018-06-22T09:57:25.915Z,102691.40
2018-06-22T09:59:59.616Z,102689.67
2018-06-22T10:02:31.121Z,102685.48
2018-06-22T10:05:04.368Z,102684.59
2018-06-22T10:07:35.688Z,102680.17
2018-06-22T10:10:07.441Z,102678.91
2018-06-22T10:12:40.729Z,102683.08
2018-06-22T10:15:13.754Z,102686.03
2018-06-22T10:17:47.189Z,102683.63
2018-06-22T10:20:20.101Z,102692.42
2018-06-22T10:22:53.972Z,102693.45
2018-06-22T10:25:28.485Z,102694.32
2018-06-22T10:28:00.169Z,102694.59
2018-06-22T10:30:32.445Z,102697.92
2018-06-22T10:33:03.174Z,102695.14
2018-06-22T10:35:36.145Z,102693.00
2018-06-22T10:38:10.520Z,102690.34
2018-06-22T10:40:44.430Z,102685.10
2018-06-22T10:43:20.579Z,102683.09
2018-06-22T10:45:52.238Z,102675.69
2018-06-22T10:48:25.428Z,102687.30
2018-06-22T10:50:56.832Z,102684.84
2018-06-22T10:53:28.338Z,102684.03
2018-06-22T10:56:01.250Z,102692.98
2018-06-22T10:58:34.265Z,102684.10
2018-06-22T11:01:07.265Z,102684.06
2018-06-22T11:03:37.197Z,102678.78
2018-06-22T11:06:09.468Z,102684.20
2018-06-22T11:08:42.984Z,102681.11
2018-06-22T11:11:16.147Z,102685.66
2018-06-22T11:13:46.267Z,102692.46
2018-06-22T11:16:19.105Z,102703.78
2018-06-22T11:18:51.214Z,102706.44
2018-06-22T11:21:26.122Z,102704.13
2018-06-22T11:24:00.096Z,102698.34
2018-06-22T11:26:33.092Z,102699.52
2018-06-22T11:29:06.122Z,102710.05
2018-06-22T11:31:39.409Z,102712.36
2018-06-22T11:34:11.028Z,102710.50
2018-06-22T11:36:43.074Z,102718.23
2018-06-22T11:39:16.256Z,102721.29
2018-06-22T11:41:49.121Z,102721.97
2018-06-22T11:44:23.425Z,102726.28
2018-06-22T11:46:55.097Z,102726.91
2018-06-22T11:49:29.722Z,102725.79
2018-06-22T11:51:59.719Z,102730.62
2018-06-22T11:54:34.204Z,102733.81
2018-06-22T11:57:08.987Z,102730.09
2018-06-22T11:59:42.161Z,102736.11
2018-06-22T12:02:11.555Z,102737.00
2018-06-22T12:04:44.526Z,102740.48
2018-06-22T12:07:16.322Z,102735.86
2018-06-22T12:09:47.709Z,102737.88
2018-06-22T12:12:20.686Z,102736.66
2018-06-22T12:14:55.416Z,102735.58
2018-06-22T12:17:27.657Z,102737.70
2018-06-22T12:20:00.763Z,102732.88
2018-06-22T12:22:35.090Z,102735.34
2018-06-22T12:25:08.212Z,102720.78
2018-06-22T12:27:42.842Z,102728.50
2018-06-22T12:30:13.233Z,102731.16
2018-06-22T12:32:46.155Z,102730.34
2018-06-22T12:35:19.065Z,102745.40
2018-06-22T12:37:53.802Z,102740.70
2018-06-22T12:40:26.669Z,102737.30
2018-06-22T12:43:01.019Z,102735.73
2018-06-22T12:45:31.019Z,102736.95
2018-06-22T12:48:02.998Z,102739.45
2018-06-22T12:50:34.536Z,102744.52
2018-06-22T12:53:09.102Z,102744.72
2018-06-22T12:55:42.148Z,102751.55
2018-06-22T12:58:16.878Z,102754.36
2018-06-22T13:00:51.389Z,102759.06
2018-06-22T13:03:26.017Z,102753.45
2018-06-22T13:05:59.127Z,102753.06
2018-06-22T13:08:30.550Z,102751.84
2018-06-22T13:11:03.760Z,102749.00
2018-06-22T13:13:36.648Z,102743.84
2018-06-22T13:16:09.947Z,102748.51
2018-06-22T13:18:42.200Z,102750.70
2018-06-22T13:21:15.286Z,102744.02
2018-06-22T13:23:46.204Z,102753.55
2018-06-22T13:26:19.291Z,102754.22
2018-06-22T13:28:53.971Z,102763.71
2018-06-22T13:31:24.682Z,102762.18
2018-06-22T13:33:55.331Z,102759.73
2018-06-22T13:36:27.157Z,102762.12
2018-06-22T13:39:00.069Z,102755.07
2018-06-22T13:41:30.077Z,102763.14
2018-06-22T13:44:01.936Z,102762.97
2018-06-22T13:46:35.129Z,102766.09
2018-06-22T13:49:06.766Z,102760.01
2018-06-22T13:51:39.920Z,102766.28
2018-06-22T13:54:12.943Z,102769.35
2018-06-22T13:56:47.451Z,102769.86
2018-06-22T13:59:19.513Z,102771.48
2018-06-22T14:01:50.336Z,102769.52
2018-06-22T14:04:39.621Z,102777.82
2018-06-22T14:07:10.997Z,102775.25
2018-06-22T14:09:42.230Z,102778.25
2018-06-22T14:12:13.683Z,102776.61
2018-06-22T14:14:45.072Z,102780.73
2018-06-22T14:17:18.335Z,102777.20
2018-06-22T14:19:49.824Z,102780.00
2018-06-22T14:22:22.767Z,102789.13
2018-06-22T14:24:54.198Z,102779.20
2018-06-22T14:27:25.777Z,102788.19
2018-06-22T14:29:59.263Z,102784.27
2018-06-22T14:32:32.258Z,102785.88
2018-06-22T14:35:05.173Z,102796.20
2018-06-22T14:37:38.508Z,102796.06
2018-06-22T14:40:10.053Z,102794.48
2018-06-22T14:42:40.957Z,102795.37
2018-06-22T14:45:14.111Z,102792.59
2018-06-22T14:47:47.262Z,102791.41
2018-06-22T14:50:21.855Z,102796.66
2018-06-22T14:52:52.915Z,102802.02
2018-06-22T14:55:40.591Z,102797.34
2018-06-22T14:58:31.293Z,102795.64
2018-06-22T15:01:21.890Z,102798.43
2018-06-22T15:04:11.077Z,102793.05
2018-06-22T15:06:59.854Z,102786.45
2018-06-22T15:09:32.865Z,102804.20
2018-06-22T15:12:05.888Z,102808.70
2018-06-22T15:18:29.382Z,102815.44
2018-06-22T15:21:09.768Z,102815.91
2018-06-22T15:23:42.941Z,102819.77
2018-06-22T15:26:17.091Z,102828.52
2018-06-22T15:28:48.471Z,102828.31
2018-06-22T15:31:18.325Z,102823.03
2018-06-22T15:34:06.803Z,102816.30
2018-06-22T15:36:55.160Z,102809.44
2018-06-22T15:39:44.642Z,102824.50
2018-06-22T15:42:33.229Z,102821.95
2018-06-22T15:45:21.259Z,102822.38
2018-06-22T15:48:10.437Z,102825.31
2018-06-22T15:51:14.442Z,102816.24
2018-06-22T15:54:04.942Z,102822.27
2018-06-22T15:56:37.837Z,102826.23
2018-06-22T15:59:10.687Z,102821.25
2018-06-22T16:01:42.031Z,102829.05
2018-06-22T16:04:15.833Z,102832.02
2018-06-22T16:06:50.134Z,102825.73
2018-06-22T16:09:24.514Z,102824.00
2018-06-22T16:12:14.812Z,102824.14
2018-06-22T16:15:05.518Z,102828.73
2018-06-22T16:17:54.481Z,102829.80
2018-06-22T16:20:43.843Z,102833.12
2018-06-22T16:23:32.069Z,102829.91
2018-06-22T16:26:21.758Z,102835.42
2018-06-22T16:28:55.126Z,102837.22
2018-06-22T16:31:26.455Z,102840.02
2018-06-22T16:33:59.787Z,102842.92
2018-06-22T16:36:32.706Z,102837.09
2018-06-22T16:39:06.258Z,102834.52
2018-06-22T16:41:40.027Z,102837.12
2018-06-22T16:44:15.563Z,102844.59
2018-06-22T16:46:47.564Z,102840.03
2018-06-22T16:49:18.998Z,102841.72
2018-06-22T16:51:53.237Z,102837.41
2018-06-22T16:54:24.578Z,102842.88
2018-06-22T16:56:57.523Z,102849.82
2018-06-22T16:59:28.952Z,102850.80
2018-06-22T17:02:01.809Z,102847.35
2018-06-22T17:04:34.670Z,102849.78
2018-06-22T17:07:23.663Z,102847.13
2018-06-22T17:10:13.862Z,102847.50
2018-06-22T17:13:04.272Z,102850.94
2018-06-22T17:15:54.240Z,102844.94
2018-06-22T17:18:43.194Z,102847.47
2018-06-22T17:21:15.950Z,102849.18
2018-06-22T17:23:48.016Z,102845.12
2018-06-22T17:26:18.007Z,102841.31
2018-06-22T17:28:49.496Z,102847.69
2018-06-22T17:31:22.304Z,102849.59
2018-06-22T17:33:54.524Z,102850.37
2018-06-22T17:36:25.941Z,102856.65
2018-06-22T17:38:58.990Z,102855.59
2018-06-22T17:41:31.896Z,102857.23
2018-06-22T17:44:06.209Z,102862.94
2018-06-22T17:46:36.926Z,102859.89
2018-06-22T17:49:10.587Z,102857.36
2018-06-22T17:51:43.468Z,102867.31
2018-06-22T17:54:15.933Z,102862.44
2018-06-22T17:56:47.331Z,102868.78
2018-06-22T17:59:34.086Z,102864.17
2018-06-22T18:02:23.323Z,102872.53
2018-06-22T18:05:11.904Z,102867.95
2018-06-22T18:07:45.671Z,102863.85
2018-06-22T18:10:36.393Z,102855.55
2018-06-22T18:13:06.329Z,102863.23
2018-06-22T18:15:39.241Z,102861.71
2018-06-22T18:18:12.289Z,102858.33
2018-06-22T18:20:43.611Z,102858.91
2018-06-22T18:23:15.005Z,102860.28
2018-06-22T18:25:47.303Z,102864.36
2018-06-22T18:28:17.244Z,102860.41
2018-06-22T18:30:48.694Z,102863.48
2018-06-22T18:33:19.292Z,102857.42
2018-06-22T18:35:50.776Z,102865.63
2018-06-22T18:38:22.219Z,102858.41
2018-06-22T18:40:57.158Z,102869.52
2018-06-22T18:43:46.232Z,102871.89
2018-06-22T18:46:20.593Z,102863.52
2018-06-22T18:48:53.497Z,102863.03
2018-06-22T18:51:24.994Z,102865.10
2018-06-22T18:54:13.283Z,102870.09
2018-06-22T18:57:02.597Z,102863.34
2018-06-22T18:59:43.479Z,102870.47
2018-06-22T19:02:32.538Z,102870.47
2018-06-22T19:05:05.412Z,102872.70
2018-06-22T19:07:39.783Z,102868.05
2018-06-22T19:10:09.736Z,102874.75
2018-06-22T19:12:42.895Z,102873.20
2018-06-22T19:15:15.942Z,102875.88
2018-06-22T19:17:47.355Z,102873.79
2018-06-22T19:20:20.284Z,102870.58
2018-06-22T19:22:51.580Z,102882.25
2018-06-22T19:25:24.371Z,102874.74
2018-06-22T19:27:57.234Z,102878.25
2018-06-22T19:30:28.164Z,102878.66
2018-06-22T19:33:00.476Z,102873.61
2018-06-22T19:35:32.778Z,102875.92
2018-06-22T19:38:02.748Z,102876.34
2018-06-22T19:40:37.102Z,102876.77
2018-06-22T19:43:09.072Z,102869.05
2018-06-22T19:45:58.556Z,102875.05
2018-06-22T19:48:47.390Z,102879.59
2018-06-22T19:51:34.936Z,102873.41
2018-06-22T19:54:08.082Z,102881.72
2018-06-22T19:56:37.976Z,102879.27
2018-06-22T19:59:09.376Z,102884.89
2018-06-22T20:01:41.099Z,102885.06
2018-06-22T20:04:12.484Z,102888.95
2018-06-22T20:06:46.734Z,102890.36
2018-06-22T20:09:19.446Z,102892.33
2018-06-22T20:11:52.374Z,102895.06
2018-06-22T20:14:24.463Z,102896.65
2018-06-22T20:16:56.340Z,102900.88
2018-06-22T20:19:30.823Z,102902.70
2018-06-22T20:22:03.897Z,102903.89
2018-06-22T20:24:53.062Z,102907.10
2018-06-22T20:27:26.047Z,102903.83
2018-06-22T20:30:00.440Z,102903.28
2018-06-22T20:32:33.411Z,102907.36
2018-06-22T20:35:21.604Z,102916.19
2018-06-22T20:38:10.872Z,102917.05
2018-06-22T20:41:00.346Z,102914.17
2018-06-22T20:43:48.400Z,102916.23
2018-06-22T20:46:37.338Z,102919.64
2018-06-22T20:49:26.506Z,102926.06
2018-06-22T20:51:58.885Z,102930.98
2018-06-22T20:54:31.688Z,102926.36
2018-06-22T20:57:03.296Z,102927.69
2018-06-22T20:59:37.634Z,102944.69
2018-06-22T21:02:09.291Z,102938.89
2018-06-22T21:04:42.557Z,102937.79
2018-06-22T21:07:15.724Z,102938.72
2018-06-22T21:09:49.347Z,102937.26
2018-06-22T21:12:26.253Z,102934.87
2018-06-22T21:14:50.722Z,102940.28
2018-06-22T21:17:24.989Z,102939.95
2018-06-22T21:19:58.901Z,102944.57
2018-06-22T21:22:31.945Z,102944.67
2018-06-22T21:25:03.256Z,102946.83
2018-06-22T21:27:52.365Z,102946.09
2018-06-22T21:30:42.862Z,102932.64
2018-06-22T21:33:31.827Z,102928.79
2018-06-22T21:36:20.920Z,102929.25
2018-06-22T21:39:06.593Z,102926.38
2018-06-22T21:41:38.933Z,102926.31
2018-06-22T21:44:13.550Z,102930.66
2018-06-22T21:46:45.031Z,102934.67
2018-06-22T21:49:17.165Z,102940.20
2018-06-22T21:51:48.888Z,102939.86
2018-06-22T21:54:19.566Z,102946.51
2018-06-22T21:56:52.667Z,102947.41
2018-06-22T21:59:24.675Z,102940.14
2018-06-22T22:01:57.482Z,102942.47
2018-06-22T22:04:30.988Z,102944.21
2018-06-22T22:07:01.719Z,102939.64
2018-06-22T22:09:46.201Z,102942.86
2018-06-22T22:12:19.154Z,102943.67
2018-06-22T22:14:50.480Z,102939.86
2018-06-22T22:17:23.821Z,102942.32
2018-06-22T22:19:53.736Z,102937.14
2018-06-22T22:22:26.556Z,102941.31
2018-06-22T22:24:57.917Z,102937.23
2018-06-22T22:27:30.771Z,102933.33
2018-06-22T22:30:03.157Z,102938.09
2018-06-22T22:32:35.928Z,102937.36
2018-06-22T22:35:10.379Z,102933.03
2018-06-22T22:37:40.422Z,102924.98
2018-06-22T22:40:12.229Z,102924.77
2018-06-22T22:42:44.376Z,102929.16
2018-06-22T22:45:17.217Z,102930.59
2018-06-22T22:47:47.826Z,102928.48
2018-06-22T22:50:20.769Z,102924.50
2018-06-22T22:52:53.560Z,102923.60
2018-06-22T22:55:28.241Z,102930.32
2018-06-22T22:58:02.587Z,102939.05
2018-06-22T23:00:35.529Z,102936.01
2018-06-22T23:03:09.831Z,102931.62
2018-06-22T23:05:42.831Z,102923.44
2018-06-22T23:08:14.227Z,102927.67
2018-06-22T23:10:45.274Z,102927.34
2018-06-22T23:13:18.468Z,102923.44
2018-06-22T23:15:49.894Z,102917.53
2018-06-22T23:18:19.764Z,102921.20
2018-06-22T23:20:52.804Z,102920.23
2018-06-22T23:23:51.560Z,102915.22
2018-06-22T23:26:21.647Z,102912.50
2018-06-22T23:28:54.429Z,102916.22
2018-06-22T23:31:27.325Z,102924.15
2018-06-22T23:34:00.261Z,102911.47
2018-06-22T23:36:31.728Z,102913.47
2018-06-22T23:39:05.633Z,102913.47
2018-06-22T23:41:39.938Z,102916.23
2018-06-22T23:44:13.170Z,102912.34
2018-06-22T23:46:46.009Z,102917.20
2018-06-22T23:49:17.169Z,102913.61
2018-06-22T23:51:51.827Z,102912.73
2018-06-22T23:54:26.187Z,102916.11
2018-06-22T23:57:00.831Z,102913.98
2018-06-22T23:59:33.861Z,102916.70
